Time;durP1;ratioP1;P1;durP2;ratioP2;P2;SDS_P1;SDS_P2;PMS_P1;PMS_P2;Temp;Humidity;BMP_temperature;BMP_pressure;BME280_temperature;BME280_humidity;BME280_pressure;Samples;Min_cycle;Max_cycle;Signal;HPM_P1;HPM_P2
2022/12/01 00:01:15;;;;;;;;;;;;;;;-144.99;100.00;52633.59;5046684;28;19924;-68
2022/12/01 00:03:42;;;;;;;;;;;;;;;-144.99;100.00;52623.38;5029785;28;20413;-68
2022/12/01 00:06:10;;;;;;;;;;;;;;;-144.99;100.00;52603.00;5040983;28;20202;-69
2022/12/01 00:08:38;;;;;;;;;;;;;;;-144.99;100.00;52639.69;5047264;28;19929;-68
2022/12/01 00:11:05;;;;;;;;;;;;;;;-144.99;100.00;52594.84;5040146;28;19925;-68
2022/12/01 00:13:31;;;;;;;;;;;;;;;-144.99;100.00;52611.16;5060987;28;19982;-70
2022/12/01 00:15:58;;;;;;;;;;;;;;;-144.99;100.00;52584.66;5063473;28;19985;-71
2022/12/01 00:18:25;;;;;;;;;;;;;;;-144.99;100.00;52623.38;5051800;28;19965;-72
2022/12/01 00:20:54;;;;;;;;;;;;;;;-144.99;100.00;52639.69;5050835;28;20386;-72
2022/12/01 00:23:21;;;;;;;;;;;;;;;-144.99;100.00;52647.84;5051712;28;20462;-72
2022/12/01 00:25:49;;;;;;;;;;;;;;;-144.99;100.00;52662.13;5039269;28;19974;-72
2022/12/01 00:28:16;;;;;;;;;;;;;;;-144.99;100.00;52627.47;5047775;28;20445;-72
2022/12/01 00:30:42;;;;;;;;;;;;;;;-144.99;100.00;52637.66;5049675;28;20452;-71
2022/12/01 00:33:09;;;;;;;;;;;;;;;-144.99;100.00;52578.53;5052201;28;20013;-71
2022/12/01 00:35:36;;;;;;;;;;;;;;;-144.99;100.00;52656.00;5047427;28;19955;-72
2022/12/01 00:38:02;;;;;;;;;;;;;;;-144.99;100.00;52627.47;5043086;28;19983;-67
2022/12/01 00:40:29;;;;;;;;;;;;;;;-144.99;100.00;52615.25;5053769;28;19943;-66
2022/12/01 00:42:57;;;;;;;;;;;;;;;-144.99;100.00;52619.31;5064296;22;20334;-66
2022/12/01 00:45:23;;;;;;;;;;;;;;;-144.99;100.00;52594.84;5063270;28;19965;-66
2022/12/01 00:47:50;;;;;;;;;;;;;;;-144.99;100.00;52594.84;5059602;28;19955;-66
2022/12/01 00:50:16;;;;;;;;;;;;;;;-144.99;100.00;52631.53;5061664;28;19959;-66
2022/12/01 00:52:47;;;;;;;;;;;;;;;-144.99;100.00;52637.66;5051360;28;19955;-68
2022/12/01 00:55:14;;;;;;;;;;;;;;;-144.99;100.00;52631.53;5038664;28;19975;-68
2022/12/01 00:57:40;;;;;;;;;;;;;;;-144.99;100.00;52643.78;5048538;28;20342;-68
2022/12/01 01:00:09;;;;;;;;;;;;;;;-144.99;100.00;52611.16;5043857;28;19929;-67
2022/12/01 01:02:38;;;;;;;;;;;;;;;-144.99;100.00;52582.63;5049592;28;20351;-67
2022/12/01 01:05:05;;;;;;;;;;;;;;;-144.99;100.00;52643.78;5049121;28;19959;-67
2022/12/01 01:07:31;;;;;;;;;;;;;;;-144.99;100.00;52623.38;5047047;28;19925;-67
2022/12/01 01:09:58;;;;;;;;;;;;;;;-144.99;100.00;52615.25;5046462;28;19955;-67
2022/12/01 01:12:24;;;;;;;;;;;;;;;-144.99;100.00;52603.00;5047769;28;19958;-67
2022/12/01 01:14:51;;;;;;;;;;;;;;;-144.99;100.00;52598.94;5049388;28;20357;-67
2022/12/01 01:17:19;;;;;;;;;;;;;;;-144.99;100.00;52651.94;5046948;28;20367;-67
2022/12/01 01:19:46;;;;;;;;;;;;;;;-144.99;100.00;52619.31;5040758;28;20262;-70
2022/12/01 01:22:13;;;;;;;;;;;;;;;-144.99;100.00;52639.69;5049972;28;19970;-67
2022/12/01 01:24:39;;;;;;;;;;;;;;;-144.99;100.00;52653.97;5047463;28;20028;-68
2022/12/01 01:27:06;;;;;;;;;;;;;;;-144.99;100.00;52619.31;5047048;28;19940;-68
2022/12/01 01:29:32;;;;;;;;;;;;;;;-144.99;100.00;52660.09;5046569;28;19936;-68
2022/12/01 01:31:59;;;;;;;;;;;;;;;-144.99;100.00;52603.00;5049846;28;19960;-68
2022/12/01 01:34:27;;;;;;;;;;;;;;;-144.99;100.00;52611.16;5048332;28;19970;-68
2022/12/01 01:36:54;;;;;;;;;;;;;;;-144.99;100.00;52623.38;5045731;28;19940;-69
2022/12/01 01:39:20;;;;;;;;;;;;;;;-144.99;100.00;52619.31;5048764;28;20017;-69
2022/12/01 01:41:47;;;;;;;;;;;;;;;-144.99;100.00;52651.94;5048914;28;19967;-69
2022/12/01 01:44:32;;;;;;;;;;;;;;;-144.99;100.00;52594.84;5048000;28;20098;-69
2022/12/01 01:46:59;;;;;;;;;;;;;;;-144.99;100.00;52611.16;5045352;28;19937;-68
2022/12/01 01:49:27;;;;;;;;;;;;;;;-144.99;100.00;52611.16;5041212;28;19939;-68
2022/12/01 01:51:54;;;;;;;;;;;;;;;-144.99;100.00;52645.81;5046919;28;19963;-69
2022/12/01 01:54:25;;;;;;;;;;;;;;;-144.99;100.00;52631.53;5049021;28;20000;-69
2022/12/01 01:56:52;;;;;;;;;;;;;;;-144.99;100.00;52619.31;5044348;28;20026;-68
2022/12/01 01:59:21;;;;;;;;;;;;;;;-144.99;100.00;52635.63;5049128;28;20037;-68
2022/12/01 02:01:50;;;;;;;;;;;;;;;-144.99;100.00;52635.63;5044601;28;20025;-69
2022/12/01 02:04:17;;;;;;;;;;;;;;;-144.99;100.00;52596.88;5048687;28;20398;-68
2022/12/01 02:06:46;;;;;;;;;;;;;;;-144.99;100.00;52647.84;5044778;28;20028;-69
2022/12/01 02:09:14;;;;;;;;;;;;;;;-144.99;100.00;52631.53;5049414;28;20002;-69
2022/12/01 02:11:57;;;;;;;;;;;;;;;-144.99;100.00;52651.94;5049434;28;19991;-68
2022/12/01 02:14:31;;;;;;;;;;;;;;;-144.99;100.00;52615.25;5049874;28;19974;-69
2022/12/01 02:17:01;;;;;;;;;;;;;;;-144.99;100.00;52635.63;5041052;28;19978;-69
2022/12/01 02:19:45;;;;;;;;;;;;;;;-144.99;100.00;52574.47;5042725;28;19972;-69
2022/12/01 02:22:20;;;;;;;;;;;;;;;-144.99;100.00;52607.09;5046886;28;19986;-68
2022/12/01 02:24:55;;;;;;;;;;;;;;;-144.99;100.00;52635.63;5048670;28;19933;-68
2022/12/01 02:27:32;;;;;;;;;;;;;;;-144.99;100.00;52586.69;5037947;28;19937;-69
2022/12/01 02:30:05;;;;;;;;;;;;;;;-144.99;100.00;52651.94;5040995;28;20046;-69
2022/12/01 02:32:41;;;;;;;;;;;;;;;-144.99;100.00;52615.25;5036799;28;19992;-72
2022/12/01 02:35:12;;;;;;;;;;;;;;;-144.99;100.00;52635.63;5048777;28;20111;-69
2022/12/01 02:37:43;;;;;;;;;;;;;;;-144.99;100.00;52607.09;5046172;28;20365;-70
2022/12/01 02:40:13;;;;;;;;;;;;;;;-144.99;100.00;52633.59;5048987;28;19986;-70
2022/12/01 02:42:52;;;;;;;;;;;;;;;-144.99;100.00;52580.59;5040925;28;20384;-67
2022/12/01 02:45:22;;;;;;;;;;;;;;;-144.99;100.00;52619.31;5048672;28;20041;-68
2022/12/01 02:47:51;;;;;;;;;;;;;;;-144.99;100.00;52635.63;5045853;28;20397;-68
2022/12/01 02:50:18;;;;;;;;;;;;;;;-144.99;100.00;52611.16;5047832;28;19929;-69
2022/12/01 02:52:45;;;;;;;;;;;;;;;-144.99;100.00;52623.38;5042092;28;19976;-65
2022/12/01 02:55:12;;;;;;;;;;;;;;;-144.99;100.00;52605.03;5042977;28;19959;-65
2022/12/01 02:57:39;;;;;;;;;;;;;;;-144.99;100.00;52623.38;5041427;28;19986;-65
2022/12/01 03:00:06;;;;;;;;;;;;;;;-144.99;100.00;52629.50;5040850;28;20339;-65
2022/12/01 03:02:41;;;;;;;;;;;;;;;-144.99;100.00;52637.66;5044773;28;20451;-65
2022/12/01 03:05:11;;;;;;;;;;;;;;;-144.99;100.00;52631.53;5045270;28;19933;-67
2022/12/01 03:07:45;;;;;;;;;;;;;;;-144.99;100.00;52615.25;5044445;28;20265;-66
2022/12/01 03:10:17;;;;;;;;;;;;;;;-144.99;100.00;52598.94;5046308;28;19947;-66
2022/12/01 03:12:49;;;;;;;;;;;;;;;-144.99;100.00;52619.31;5043646;28;19955;-66
2022/12/01 03:15:21;;;;;;;;;;;;;;;-144.99;100.00;52598.94;5047264;28;19966;-66
2022/12/01 03:17:52;;;;;;;;;;;;;;;-144.99;100.00;52598.94;5045030;28;19937;-67
2022/12/01 03:20:23;;;;;;;;;;;;;;;-144.99;100.00;52656.00;5047939;28;19978;-66
2022/12/01 03:22:52;;;;;;;;;;;;;;;-144.99;100.00;52574.47;5045012;28;20046;-66
2022/12/01 03:25:19;;;;;;;;;;;;;;;-144.99;100.00;52598.94;5046929;28;20001;-66
2022/12/01 03:27:47;;;;;;;;;;;;;;;-144.99;100.00;52615.25;5041882;28;19994;-66
2022/12/01 03:30:15;;;;;;;;;;;;;;;-144.99;100.00;52598.94;5047687;28;19947;-66
2022/12/01 03:32:46;;;;;;;;;;;;;;;-144.99;100.00;52621.34;5046300;28;19929;-66
2022/12/01 03:35:15;;;;;;;;;;;;;;;-144.99;100.00;52623.38;5047780;28;19971;-67
2022/12/01 03:37:45;;;;;;;;;;;;;;;-144.99;100.00;52647.84;5043705;28;19985;-67
2022/12/01 03:40:13;;;;;;;;;;;;;;;-144.99;100.00;52582.63;5047692;28;20001;-67
2022/12/01 03:42:41;;;;;;;;;;;;;;;-144.99;100.00;52603.00;5045098;28;20689;-68
2022/12/01 03:45:11;;;;;;;;;;;;;;;-144.99;100.00;52643.78;5049217;28;19949;-68
2022/12/01 03:47:39;;;;;;;;;;;;;;;-144.99;100.00;52578.53;5049303;28;19950;-71
2022/12/01 03:50:09;;;;;;;;;;;;;;;-144.99;100.00;52631.53;5038399;28;20460;-70
2022/12/01 03:52:39;;;;;;;;;;;;;;;-144.99;100.00;52627.47;5043437;28;19959;-70
2022/12/01 03:55:11;;;;;;;;;;;;;;;-144.99;100.00;52611.16;5051793;28;19939;-70
2022/12/01 03:57:41;;;;;;;;;;;;;;;-144.99;100.00;52645.81;5044224;28;20002;-69
2022/12/01 04:00:10;;;;;;;;;;;;;;;-144.99;100.00;52619.31;5041529;28;19969;-69
2022/12/01 04:02:37;;;;;;;;;;;;;;;-144.99;100.00;52639.69;5050986;28;19925;-70
2022/12/01 04:05:04;;;;;;;;;;;;;;;-144.99;100.00;52660.09;5046318;28;20077;-69
2022/12/01 04:07:31;;;;;;;;;;;;;;;-144.99;100.00;52611.16;5050770;28;19924;-66
2022/12/01 04:09:57;;;;;;;;;;;;;;;-144.99;100.00;52621.34;5047822;28;20001;-67
2022/12/01 04:12:31;;;;;;;;;;;;;;;-144.99;100.00;52603.00;5050021;28;20453;-66
2022/12/01 04:14:59;;;;;;;;;;;;;;;-144.99;100.00;52631.53;5046714;28;19925;-67
2022/12/01 04:17:26;;;;;;;;;;;;;;;-144.99;100.00;52603.00;5044442;28;20006;-70
2022/12/01 04:19:52;;;;;;;;;;;;;;;-144.99;100.00;52594.84;5046377;28;20012;-69
2022/12/01 04:22:19;;;;;;;;;;;;;;;-144.99;100.00;52664.16;5050543;28;19966;-71
2022/12/01 04:24:46;;;;;;;;;;;;;;;-144.99;100.00;52619.31;5048687;28;19939;-66
2022/12/01 04:27:13;;;;;;;;;;;;;;;-144.99;100.00;52639.69;5050234;28;20458;-66
2022/12/01 04:29:40;;;;;;;;;;;;;;;-144.99;100.00;52639.69;5047464;28;20336;-63
2022/12/01 04:32:07;;;;;;;;;;;;;;;-144.99;100.00;52629.50;5046963;28;20078;-64
2022/12/01 04:34:34;;;;;;;;;;;;;;;-144.99;100.00;52647.84;5049021;28;20429;-66
2022/12/01 04:37:00;;;;;;;;;;;;;;;-144.99;100.00;52662.13;5049679;28;19973;-71
2022/12/01 04:39:27;;;;;;;;;;;;;;;-144.99;100.00;52672.31;5053152;28;19967;-70
2022/12/01 04:41:53;;;;;;;;;;;;;;;-144.99;100.00;52637.66;5055583;28;19967;-68
2022/12/01 04:44:20;;;;;;;;;;;;;;;-144.99;100.00;52623.38;5049631;28;19976;-67
2022/12/01 04:46:47;;;;;;;;;;;;;;;-144.99;100.00;52596.88;5050632;28;20460;-70
2022/12/01 04:49:14;;;;;;;;;;;;;;;-144.99;100.00;52668.22;5046240;28;19939;-71
2022/12/01 04:51:40;;;;;;;;;;;;;;;-144.99;100.00;52615.25;5049863;28;20016;-71
2022/12/01 04:54:07;;;;;;;;;;;;;;;-144.99;100.00;52651.94;5045136;28;20030;-71
2022/12/01 04:56:33;;;;;;;;;;;;;;;-144.99;100.00;52631.53;5050148;28;20445;-67
2022/12/01 04:59:00;;;;;;;;;;;;;;;-144.99;100.00;52611.16;5046846;28;19925;-67
2022/12/01 05:01:27;;;;;;;;;;;;;;;-144.99;100.00;52656.00;5037777;28;19951;-68
2022/12/01 05:03:55;;;;;;;;;;;;;;;-144.99;100.00;52629.50;5045853;28;19929;-67
2022/12/01 05:06:22;;;;;;;;;;;;;;;-144.99;100.00;52615.25;5046988;28;19955;-67
2022/12/01 05:08:49;;;;;;;;;;;;;;;-144.99;100.00;52635.63;5049549;28;19932;-68
2022/12/01 05:11:16;;;;;;;;;;;;;;;-144.99;100.00;52607.09;5043507;28;20041;-68
2022/12/01 05:13:43;;;;;;;;;;;;;;;-144.99;100.00;52643.78;5037231;28;20730;-68
2022/12/01 05:16:11;;;;;;;;;;;;;;;-144.99;100.00;52586.69;5049839;28;19954;-69
2022/12/01 05:18:38;;;;;;;;;;;;;;;-144.99;100.00;52639.69;5049937;28;20018;-69
2022/12/01 05:21:05;;;;;;;;;;;;;;;-144.99;100.00;52625.44;5042717;28;19979;-69
2022/12/01 05:23:33;;;;;;;;;;;;;;;-144.99;100.00;52582.63;5050548;28;19961;-69
2022/12/01 05:25:59;;;;;;;;;;;;;;;-144.99;100.00;52619.31;5045456;28;19985;-69
2022/12/01 05:28:26;;;;;;;;;;;;;;;-144.99;100.00;52631.53;5042044;28;19943;-69
2022/12/01 05:30:53;;;;;;;;;;;;;;;-144.99;100.00;52623.38;5053785;28;19928;-69
2022/12/01 05:33:20;;;;;;;;;;;;;;;-144.99;100.00;52605.03;5048520;28;20458;-69
2022/12/01 05:35:47;;;;;;;;;;;;;;;-144.99;100.00;52621.34;5050862;28;19961;-69
2022/12/01 05:38:15;;;;;;;;;;;;;;;-144.99;100.00;52639.69;5049777;28;20333;-69
2022/12/01 05:40:42;;;;;;;;;;;;;;;-144.99;100.00;52631.53;5048550;28;19939;-68
2022/12/01 05:43:09;;;;;;;;;;;;;;;-144.99;100.00;52631.53;5048253;28;20048;-67
2022/12/01 05:45:35;;;;;;;;;;;;;;;-144.99;100.00;52613.19;5050315;28;20633;-68
2022/12/01 05:48:02;;;;;;;;;;;;;;;-144.99;100.00;52607.09;5048003;28;19945;-68
2022/12/01 05:50:29;;;;;;;;;;;;;;;-144.99;100.00;52631.53;5050729;28;19925;-69
2022/12/01 05:52:56;;;;;;;;;;;;;;;-144.99;100.00;52631.53;5049705;28;20423;-69
2022/12/01 05:55:24;;;;;;;;;;;;;;;-144.99;100.00;52619.31;5048759;28;19955;-69
2022/12/01 05:57:51;;;;;;;;;;;;;;;-144.99;100.00;52631.53;5051731;28;19956;-68
2022/12/01 06:00:19;;;;;;;;;;;;;;;-144.99;100.00;52635.63;5047523;28;20025;-68
2022/12/01 06:02:45;;;;;;;;;;;;;;;-144.99;100.00;52566.31;5048574;28;19965;-73
2022/12/01 06:05:12;;;;;;;;;;;;;;;-144.99;100.00;52619.31;5039508;28;19947;-74
2022/12/01 06:07:39;;;;;;;;;;;;;;;-144.99;100.00;52582.63;5052988;28;19943;-74
2022/12/01 06:10:06;;;;;;;;;;;;;;;-144.99;100.00;52647.84;5048611;28;19968;-73
2022/12/01 06:12:34;;;;;;;;;;;;;;;-144.99;100.00;52623.38;5051285;28;19936;-73
2022/12/01 06:15:01;;;;;;;;;;;;;;;-144.99;100.00;52621.34;5047661;28;19932;-74
2022/12/01 06:17:27;;;;;;;;;;;;;;;-144.99;100.00;52621.34;5047418;28;19924;-70
2022/12/01 06:19:54;;;;;;;;;;;;;;;-144.99;100.00;52574.47;5046623;28;20396;-72
2022/12/01 06:22:24;;;;;;;;;;;;;;;-144.99;100.00;52635.63;5050583;28;20007;-72
2022/12/01 06:24:50;;;;;;;;;;;;;;;-144.99;100.00;52627.47;5051258;28;20050;-72
2022/12/01 06:27:19;;;;;;;;;;;;;;;-144.99;100.00;52615.25;4346546;28;10000627;-72
2022/12/01 06:29:48;;;;;;;;;;;;;;;-144.99;100.00;52643.78;5045594;28;20401;-72
2022/12/01 06:32:14;;;;;;;;;;;;;;;-144.99;100.00;52633.59;5046174;28;20430;-72
2022/12/01 06:34:42;;;;;;;;;;;;;;;-144.99;100.00;52684.53;5046583;28;19949;-72
2022/12/01 06:37:09;;;;;;;;;;;;;;;-144.99;100.00;52594.84;5047642;28;19970;-72
2022/12/01 06:39:35;;;;;;;;;;;;;;;-144.99;100.00;52639.69;5048952;28;19947;-71
2022/12/01 06:42:02;;;;;;;;;;;;;;;-144.99;100.00;52627.47;5044167;28;19967;-71
2022/12/01 06:44:28;;;;;;;;;;;;;;;-144.99;100.00;52613.19;5044617;28;19965;-71
2022/12/01 06:46:58;;;;;;;;;;;;;;;-144.99;100.00;52598.94;5045795;28;19936;-72
2022/12/01 06:49:24;;;;;;;;;;;;;;;-144.99;100.00;52598.94;5046142;28;19951;-72
2022/12/01 06:51:51;;;;;;;;;;;;;;;-144.99;100.00;52631.53;5042319;28;19959;-72
2022/12/01 06:54:17;;;;;;;;;;;;;;;-144.99;100.00;52633.59;5039877;28;19935;-71
2022/12/01 06:56:44;;;;;;;;;;;;;;;-144.99;100.00;52611.16;5039445;28;19925;-72
2022/12/01 06:59:11;;;;;;;;;;;;;;;-144.99;100.00;52629.50;5045738;28;19935;-72
2022/12/01 07:01:38;;;;;;;;;;;;;;;-144.99;100.00;52590.78;5049759;28;20225;-72
2022/12/01 07:04:06;;;;;;;;;;;;;;;-144.99;100.00;52643.78;5045928;28;19989;-72
2022/12/01 07:06:32;;;;;;;;;;;;;;;-144.99;100.00;52649.88;5049033;28;19925;-72
2022/12/01 07:08:59;;;;;;;;;;;;;;;-144.99;100.00;52680.47;5048431;28;19975;-72
2022/12/01 07:11:26;;;;;;;;;;;;;;;-144.99;100.00;52635.63;5045715;28;20037;-72
2022/12/01 07:13:55;;;;;;;;;;;;;;;-144.99;100.00;52656.00;5042375;28;19963;-72
2022/12/01 07:16:21;;;;;;;;;;;;;;;-144.99;100.00;52619.31;5034967;28;19968;-72
2022/12/01 07:18:48;;;;;;;;;;;;;;;-144.99;100.00;52643.78;5045272;28;19991;-72
2022/12/01 07:21:16;;;;;;;;;;;;;;;-144.99;100.00;52611.16;5044714;28;19969;-71
2022/12/01 07:23:43;;;;;;;;;;;;;;;-144.99;100.00;52639.69;5040439;28;19933;-72
2022/12/01 07:26:10;;;;;;;;;;;;;;;-144.99;100.00;52611.16;5036672;28;19968;-72
2022/12/01 07:28:37;;;;;;;;;;;;;;;-144.99;100.00;52631.53;5044593;28;19941;-72
2022/12/01 07:31:04;;;;;;;;;;;;;;;-144.99;100.00;52631.53;5045094;28;19960;-72
2022/12/01 07:33:31;;;;;;;;;;;;;;;-144.99;100.00;52613.19;5043882;28;19939;-72
2022/12/01 07:35:58;;;;;;;;;;;;;;;-144.99;100.00;52611.16;5045020;28;19925;-72
2022/12/01 07:38:27;;;;;;;;;;;;;;;-144.99;100.00;52611.16;5045263;28;19964;-72
2022/12/01 07:40:53;;;;;;;;;;;;;;;-144.99;100.00;52658.03;5044778;28;20290;-72
2022/12/01 07:43:20;;;;;;;;;;;;;;;-144.99;100.00;52635.63;5041291;28;19970;-72
2022/12/01 07:45:46;;;;;;;;;;;;;;;-144.99;100.00;52619.31;5045004;28;19999;-72
2022/12/01 07:48:13;;;;;;;;;;;;;;;-144.99;100.00;52578.53;5044467;28;19952;-72
2022/12/01 07:50:40;;;;;;;;;;;;;;;-144.99;100.00;52664.16;5044602;28;20022;-72
2022/12/01 07:53:06;;;;;;;;;;;;;;;-144.99;100.00;52615.25;4695488;28;10000528;-72
2022/12/01 07:55:34;;;;;;;;;;;;;;;-144.99;100.00;52656.00;5048434;28;20405;-72
2022/12/01 07:58:01;;;;;;;;;;;;;;;-144.99;100.00;52647.84;5044634;28;20466;-72
2022/12/01 08:00:27;;;;;;;;;;;;;;;-144.99;100.00;52623.38;5044973;28;19943;-73
2022/12/01 08:02:54;;;;;;;;;;;;;;;-144.99;100.00;52625.44;5043533;28;19956;-71
2022/12/01 08:05:20;;;;;;;;;;;;;;;-144.99;100.00;52651.94;5043675;28;20451;-71
2022/12/01 08:07:47;;;;;;;;;;;;;;;-144.99;100.00;52611.16;5044679;28;20415;-72
2022/12/01 08:10:14;;;;;;;;;;;;;;;-144.99;100.00;52647.84;5044581;28;19947;-72
2022/12/01 08:12:42;;;;;;;;;;;;;;;-144.99;100.00;52647.84;5044164;28;19947;-72
2022/12/01 08:15:09;;;;;;;;;;;;;;;-144.99;100.00;52615.25;5041800;28;20369;-72
2022/12/01 08:17:35;;;;;;;;;;;;;;;-144.99;100.00;52635.63;5037816;28;20209;-72
2022/12/01 08:20:02;;;;;;;;;;;;;;;-144.99;100.00;52623.38;5045130;28;20098;-72
2022/12/01 08:22:30;;;;;;;;;;;;;;;-144.99;100.00;52621.34;5043432;28;20183;-72
2022/12/01 08:24:57;;;;;;;;;;;;;;;-144.99;100.00;52615.25;5041857;28;20344;-72
2022/12/01 08:27:23;;;;;;;;;;;;;;;-144.99;100.00;52639.69;5045172;28;19967;-72
2022/12/01 08:29:51;;;;;;;;;;;;;;;-144.99;100.00;52590.78;5047841;28;19954;-72
2022/12/01 08:32:18;;;;;;;;;;;;;;;-144.99;100.00;52623.38;5048678;28;19963;-72
2022/12/01 08:34:45;;;;;;;;;;;;;;;-144.99;100.00;52623.38;5047596;28;20339;-72
2022/12/01 08:37:11;;;;;;;;;;;;;;;-144.99;100.00;52635.63;5050576;28;20301;-72
2022/12/01 08:39:38;;;;;;;;;;;;;;;-144.99;100.00;52664.16;5041592;28;19954;-72
2022/12/01 08:42:04;;;;;;;;;;;;;;;-144.99;100.00;52590.78;5055743;28;20018;-72
2022/12/01 08:44:31;;;;;;;;;;;;;;;-144.99;100.00;52637.66;5052990;28;20033;-72
2022/12/01 08:46:59;;;;;;;;;;;;;;;-144.99;100.00;52594.84;5047340;28;20417;-72
2022/12/01 08:49:25;;;;;;;;;;;;;;;-144.99;100.00;52647.84;5047586;28;19992;-72
2022/12/01 08:51:52;;;;;;;;;;;;;;;-144.99;100.00;52603.00;5048741;28;19988;-72
2022/12/01 08:54:19;;;;;;;;;;;;;;;-144.99;100.00;52639.69;5042843;28;19959;-71
2022/12/01 08:56:45;;;;;;;;;;;;;;;-144.99;100.00;52605.03;5047809;28;19982;-72
2022/12/01 08:59:12;;;;;;;;;;;;;;;-144.99;100.00;52603.00;5047989;28;20349;-72
2022/12/01 09:01:50;;;;;;;;;;;;;;;-144.99;100.00;52623.38;5047834;28;20300;-71
2022/12/01 09:04:18;;;;;;;;;;;;;;;-144.99;100.00;52631.53;5045983;28;19933;-71
2022/12/01 09:06:46;;;;;;;;;;;;;;;-144.99;100.00;52607.09;5044762;28;19932;-72
2022/12/01 09:09:15;;;;;;;;;;;;;;;-144.99;100.00;52643.78;5047472;28;19935;-71
2022/12/01 09:11:42;;;;;;;;;;;;;;;-144.99;100.00;52607.09;5047317;28;19975;-71
2022/12/01 09:14:09;;;;;;;;;;;;;;;-144.99;100.00;52605.03;5047965;28;19954;-72
2022/12/01 09:16:36;;;;;;;;;;;;;;;-144.99;100.00;52582.63;5045718;28;19935;-71
2022/12/01 09:19:03;;;;;;;;;;;;;;;-144.99;100.00;52619.31;5047361;28;20390;-72
2022/12/01 09:21:32;;;;;;;;;;;;;;;-144.99;100.00;52611.16;5047071;28;20056;-71
2022/12/01 09:23:59;;;;;;;;;;;;;;;-144.99;100.00;52594.84;5048374;28;20022;-72
2022/12/01 09:26:26;;;;;;;;;;;;;;;-144.99;100.00;52609.13;5045931;28;19964;-71
2022/12/01 09:28:53;;;;;;;;;;;;;;;-144.99;100.00;52627.47;5047408;28;19935;-72
2022/12/01 09:31:22;;;;;;;;;;;;;;;-144.99;100.00;52611.16;5046679;28;20397;-73
2022/12/01 09:33:49;;;;;;;;;;;;;;;-144.99;100.00;52611.16;5046740;28;20327;-73
2022/12/01 09:36:15;;;;;;;;;;;;;;;-144.99;100.00;52605.03;5044197;28;19949;-70
2022/12/01 09:38:43;;;;;;;;;;;;;;;-144.99;100.00;52625.44;5043168;28;19929;-72
2022/12/01 09:41:14;;;;;;;;;;;;;;;-144.99;100.00;52574.47;5046209;28;19965;-73
2022/12/01 09:43:44;;;;;;;;;;;;;;;-144.99;100.00;52609.13;5039631;28;19968;-72
2022/12/01 09:46:14;;;;;;;;;;;;;;;-144.99;100.00;52592.81;5047030;28;20378;-73
2022/12/01 09:48:43;;;;;;;;;;;;;;;-144.99;99.95;52598.94;5044974;28;19953;-72
2022/12/01 09:51:13;;;;;;;;;;;;;;;-144.99;99.36;52603.00;5046109;28;19932;-73
2022/12/01 09:53:41;;;;;;;;;;;;;;;-144.99;98.87;52611.16;5046356;28;19945;-73
2022/12/01 09:56:16;;;;;;;;;;;;;;;-144.99;99.18;52631.53;5037754;28;19975;-72
2022/12/01 09:58:43;;;;;;;;;;;;;;;-144.99;99.18;52590.78;5041365;28;20566;-72
2022/12/01 10:01:14;;;;;;;;;;;;;;;-144.99;96.91;52631.53;5036613;28;19980;-72
2022/12/01 10:03:45;;;;;;;;;;;;;;;-144.99;96.59;52594.84;5046479;28;19936;-72
2022/12/01 10:06:15;;;;;;;;;;;;;;;-144.99;94.97;52623.38;5046185;28;20367;-72
2022/12/01 10:08:44;;;;;;;;;;;;;;;-144.99;95.00;52615.25;5043293;28;20162;-72
2022/12/01 10:11:16;;;;;;;;;;;;;;;-144.99;93.33;52637.66;5040367;28;20439;-72
2022/12/01 10:13:43;;;;;;;;;;;;;;;-144.99;93.23;52603.00;5039424;28;19948;-72
2022/12/01 10:16:11;;;;;;;;;;;;;;;-144.99;93.50;52598.94;5048109;28;19928;-72
2022/12/01 10:18:44;;;;;;;;;;;;;;;-144.99;92.91;52594.84;5046780;28;19979;-72
2022/12/01 10:21:14;;;;;;;;;;;;;;;-144.99;92.43;52639.69;5041971;28;19959;-73
2022/12/01 10:23:49;;;;;;;;;;;;;;;-144.99;90.67;52635.63;5045645;28;20559;-73
2022/12/01 10:26:24;;;;;;;;;;;;;;;-144.99;91.16;52619.31;5045576;28;19990;-73
2022/12/01 10:28:54;;;;;;;;;;;;;;;-144.99;91.14;52615.25;5043974;28;20364;-73
2022/12/01 10:31:21;;;;;;;;;;;;;;;-144.99;91.12;52603.00;5045666;28;19929;-73
2022/12/01 10:33:57;;;;;;;;;;;;;;;-144.99;91.12;52603.00;5045855;28;20377;-72
2022/12/01 10:36:24;;;;;;;;;;;;;;;-144.99;92.07;52619.31;5043669;28;19938;-73
2022/12/01 10:38:51;;;;;;;;;;;;;;;-144.99;92.31;52643.78;5045770;28;19977;-73
2022/12/01 10:41:20;;;;;;;;;;;;;;;-144.99;91.84;52594.84;5046015;28;20034;-72
2022/12/01 10:43:49;;;;;;;;;;;;;;;-144.99;89.62;52647.84;5045511;28;19950;-73
2022/12/01 10:46:20;;;;;;;;;;;;;;;-144.99;89.13;52609.13;5042543;28;19965;-73
2022/12/01 10:48:54;;;;;;;;;;;;;;;-144.99;89.25;52647.84;5044623;28;20371;-73
2022/12/01 10:51:21;;;;;;;;;;;;;;;-144.99;89.18;52611.16;5044796;28;19925;-71
2022/12/01 10:53:48;;;;;;;;;;;;;;;-144.99;89.44;52651.94;5041223;28;20602;-73
2022/12/01 10:56:17;;;;;;;;;;;;;;;-144.99;89.28;52653.97;5045738;28;19994;-72
2022/12/01 10:58:46;;;;;;;;;;;;;;;-144.99;89.70;52635.63;5046038;28;19983;-72
2022/12/01 11:01:18;;;;;;;;;;;;;;;-144.99;89.86;52623.38;5047479;28;19974;-72
2022/12/01 11:03:49;;;;;;;;;;;;;;;-144.99;89.90;52647.84;5051817;28;19949;-72
2022/12/01 11:06:20;;;;;;;;;;;;;;;-144.99;90.44;52627.47;5054887;28;19929;-72
2022/12/01 11:08:51;;;;;;;;;;;;;;;-144.99;89.95;52668.22;5040178;28;19944;-73
2022/12/01 11:11:24;;;;;;;;;;;;;;;-144.99;89.85;52611.16;5045027;28;19969;-72
2022/12/01 11:13:52;;;;;;;;;;;;;;;-144.99;89.69;52594.84;5045809;28;19971;-72
2022/12/01 11:16:33;;;;;;;;;;;;;;;-144.99;89.76;52627.47;5045130;28;19997;-72
2022/12/01 11:19:07;;;;;;;;;;;;;;;-144.99;89.33;52603.00;5041607;28;20171;-72
2022/12/01 11:21:34;;;;;;;;;;;;;;;-144.99;89.25;52664.16;5043148;28;19955;-72
2022/12/01 11:24:00;;;;;;;;;;;;;;;-144.99;88.88;52623.38;5046511;28;19948;-72
2022/12/01 11:26:28;;;;;;;;;;;;;;;-144.99;88.97;52623.38;4696460;28;9999639;-72
2022/12/01 11:28:57;;;;;;;;;;;;;;;-144.99;88.42;52639.69;5041397;28;19942;-71
2022/12/01 11:31:35;;;;;;;;;;;;;;;-144.99;88.93;52684.53;5039967;28;19962;-72
2022/12/01 11:34:02;;;;;;;;;;;;;;;-144.99;88.98;52631.53;5045040;28;19925;-72
2022/12/01 11:36:33;;;;;;;;;;;;;;;-144.99;88.81;52625.44;5044964;28;20005;-72
2022/12/01 11:39:01;;;;;;;;;;;;;;;-144.99;88.47;52617.28;5043388;28;19950;-71
2022/12/01 11:41:30;;;;;;;;;;;;;;;-144.99;88.33;52603.00;5036430;28;20457;-71
2022/12/01 11:43:59;;;;;;;;;;;;;;;-144.99;88.15;52643.78;5038818;28;20101;-72
2022/12/01 11:46:31;;;;;;;;;;;;;;;-144.99;88.45;52627.47;5045800;28;19959;-72
2022/12/01 11:48:58;;;;;;;;;;;;;;;-144.99;88.26;52621.34;5045720;28;19976;-72
2022/12/01 11:51:27;;;;;;;;;;;;;;;-144.99;87.95;52639.69;5046207;28;19978;-72
2022/12/01 11:54:04;;;;;;;;;;;;;;;-144.99;87.60;52635.63;5055541;28;19948;-72
2022/12/01 11:56:31;;;;;;;;;;;;;;;-144.99;88.16;52631.53;5051094;28;19992;-72
2022/12/01 11:59:00;;;;;;;;;;;;;;;-144.99;88.42;52631.53;5045703;28;19974;-72
2022/12/01 12:01:32;;;;;;;;;;;;;;;-144.99;88.97;52635.63;5036923;28;19962;-71
2022/12/01 12:04:02;;;;;;;;;;;;;;;-144.99;88.81;52615.25;5048380;28;20174;-71
2022/12/01 12:06:33;;;;;;;;;;;;;;;-144.99;88.82;52635.63;5048439;28;20421;-72
2022/12/01 12:09:11;;;;;;;;;;;;;;;-144.99;88.81;52627.47;5048585;28;19952;-72
2022/12/01 12:11:41;;;;;;;;;;;;;;;-144.99;88.84;52637.66;5052461;28;20040;-71
2022/12/01 12:14:22;;;;;;;;;;;;;;;-144.99;88.69;52635.63;5048086;28;19941;-72
2022/12/01 12:16:57;;;;;;;;;;;;;;;-144.99;88.43;52627.47;5047456;28;19964;-72
2022/12/01 12:19:34;;;;;;;;;;;;;;;-144.99;88.04;52607.09;5034797;28;20149;-73
2022/12/01 12:22:07;;;;;;;;;;;;;;;-144.99;87.84;52647.84;5042813;28;19998;-71
2022/12/01 12:24:49;;;;;;;;;;;;;;;-144.99;88.09;52656.00;5044908;28;19959;-71